sensor_id;sensor_type;location;lat;lon;timestamp;pressure;altitude;pressure_sealevel;temperature;humidity
37068;BME280;22982;42.848;25.468;2024-03-06T00:04:06;96036.34;;;6.28;100.00
37068;BME280;22982;42.848;25.468;2024-03-06T00:09:10;96048.84;;;6.39;100.00
37068;BME280;22982;42.848;25.468;2024-03-06T00:14:12;96044.72;;;6.35;100.00
37068;BME280;22982;42.848;25.468;2024-03-06T00:19:18;96026.09;;;6.25;100.00
37068;BME280;22982;42.848;25.468;2024-03-06T00:24:21;96039.38;;;6.19;100.00
37068;BME280;22982;42.848;25.468;2024-03-06T00:29:25;96037.72;;;6.36;100.00
37068;BME280;22982;42.848;25.468;2024-03-06T00:34:36;96041.84;;;6.22;100.00
37068;BME280;22982;42.848;25.468;2024-03-06T00:39:39;96046.34;;;6.19;100.00
37068;BME280;22982;42.848;25.468;2024-03-06T00:44:42;96040.56;;;6.12;100.00
37068;BME280;22982;42.848;25.468;2024-03-06T00:49:45;96039.94;;;6.26;100.00
37068;BME280;22982;42.848;25.468;2024-03-06T00:54:48;96040.88;;;6.06;100.00
37068;BME280;22982;42.848;25.468;2024-03-06T00:59:50;96053.03;;;6.05;100.00
37068;BME280;22982;42.848;25.468;2024-03-06T01:04:53;96065.84;;;6.10;100.00
37068;BME280;22982;42.848;25.468;2024-03-06T01:09:57;96064.63;;;6.17;100.00
37068;BME280;22982;42.848;25.468;2024-03-06T01:14:59;96074.91;;;6.20;100.00
37068;BME280;22982;42.848;25.468;2024-03-06T01:20:06;96067.25;;;6.17;100.00
37068;BME280;22982;42.848;25.468;2024-03-06T01:25:09;96074.75;;;6.23;100.00
37068;BME280;22982;42.848;25.468;2024-03-06T01:30:12;96081.25;;;6.15;100.00
37068;BME280;22982;42.848;25.468;2024-03-06T01:35:15;96074.09;;;6.20;100.00
37068;BME280;22982;42.848;25.468;2024-03-06T01:40:17;96079.97;;;6.23;100.00
37068;BME280;22982;42.848;25.468;2024-03-06T01:45:23;96071.44;;;6.39;100.00
37068;BME280;22982;42.848;25.468;2024-03-06T01:50:25;96052.19;;;6.24;100.00
37068;BME280;22982;42.848;25.468;2024-03-06T01:56:17;96080.38;;;6.14;100.00
37068;BME280;22982;42.848;25.468;2024-03-06T02:01:23;96062.81;;;6.00;100.00
37068;BME280;22982;42.848;25.468;2024-03-06T02:06:26;96089.69;;;6.01;100.00
37068;BME280;22982;42.848;25.468;2024-03-06T02:11:54;96092.72;;;5.90;100.00
37068;BME280;22982;42.848;25.468;2024-03-06T02:16:56;96086.03;;;5.84;100.00
37068;BME280;22982;42.848;25.468;2024-03-06T02:21:59;96095.41;;;5.88;100.00
37068;BME280;22982;42.848;25.468;2024-03-06T02:27:05;96089.13;;;5.92;100.00
37068;BME280;22982;42.848;25.468;2024-03-06T02:32:12;96091.78;;;6.11;100.00
37068;BME280;22982;42.848;25.468;2024-03-06T02:37:20;96096.28;;;6.27;100.00
37068;BME280;22982;42.848;25.468;2024-03-06T02:42:23;96096.84;;;6.33;100.00
37068;BME280;22982;42.848;25.468;2024-03-06T02:47:31;96098.69;;;6.31;100.00
37068;BME280;22982;42.848;25.468;2024-03-06T02:52:33;96093.06;;;6.41;100.00
37068;BME280;22982;42.848;25.468;2024-03-06T02:57:36;96098.75;;;6.49;100.00
37068;BME280;22982;42.848;25.468;2024-03-06T03:02:39;96104.03;;;6.28;100.00
37068;BME280;22982;42.848;25.468;2024-03-06T03:07:42;96116.78;;;6.35;100.00
37068;BME280;22982;42.848;25.468;2024-03-06T03:12:45;96111.22;;;6.42;100.00
37068;BME280;22982;42.848;25.468;2024-03-06T03:17:48;96111.03;;;6.47;100.00
37068;BME280;22982;42.848;25.468;2024-03-06T03:22:50;96122.03;;;6.52;100.00
37068;BME280;22982;42.848;25.468;2024-03-06T03:27:53;96111.06;;;6.64;100.00
37068;BME280;22982;42.848;25.468;2024-03-06T03:32:55;96123.31;;;6.62;100.00
37068;BME280;22982;42.848;25.468;2024-03-06T03:37:59;96107.53;;;6.46;100.00
37068;BME280;22982;42.848;25.468;2024-03-06T03:43:02;96098.13;;;6.44;100.00
37068;BME280;22982;42.848;25.468;2024-03-06T03:48:08;96108.25;;;6.50;100.00
37068;BME280;22982;42.848;25.468;2024-03-06T03:53:15;96116.56;;;6.58;100.00
37068;BME280;22982;42.848;25.468;2024-03-06T03:58:18;96127.56;;;6.65;100.00
37068;BME280;22982;42.848;25.468;2024-03-06T04:03:21;96135.84;;;6.73;100.00
37068;BME280;22982;42.848;25.468;2024-03-06T04:08:25;96134.66;;;6.61;100.00
37068;BME280;22982;42.848;25.468;2024-03-06T04:13:27;96138.25;;;6.59;100.00
37068;BME280;22982;42.848;25.468;2024-03-06T04:18:33;96131.63;;;6.51;100.00
37068;BME280;22982;42.848;25.468;2024-03-06T04:29:09;96135.91;;;6.33;100.00
37068;BME280;22982;42.848;25.468;2024-03-06T04:34:12;96143.44;;;6.21;100.00
37068;BME280;22982;42.848;25.468;2024-03-06T04:39:14;96136.25;;;6.07;100.00
37068;BME280;22982;42.848;25.468;2024-03-06T04:44:17;96147.03;;;6.18;100.00
37068;BME280;22982;42.848;25.468;2024-03-06T04:49:20;96149.94;;;6.31;100.00
37068;BME280;22982;42.848;25.468;2024-03-06T04:54:22;96148.94;;;6.33;100.00
37068;BME280;22982;42.848;25.468;2024-03-06T04:59:29;96149.06;;;6.30;100.00
37068;BME280;22982;42.848;25.468;2024-03-06T05:04:31;96161.53;;;6.43;100.00
37068;BME280;22982;42.848;25.468;2024-03-06T05:09:58;96167.13;;;6.54;100.00
37068;BME280;22982;42.848;25.468;2024-03-06T05:15:18;96168.94;;;6.52;100.00
37068;BME280;22982;42.848;25.468;2024-03-06T05:20:39;96173.09;;;6.56;100.00
37068;BME280;22982;42.848;25.468;2024-03-06T05:26:01;96184.50;;;6.54;100.00
37068;BME280;22982;42.848;25.468;2024-03-06T05:31:21;96184.28;;;6.58;100.00
37068;BME280;22982;42.848;25.468;2024-03-06T05:36:43;96192.88;;;6.60;100.00
37068;BME280;22982;42.848;25.468;2024-03-06T05:42:04;96185.50;;;6.51;100.00
37068;BME280;22982;42.848;25.468;2024-03-06T05:47:27;96200.56;;;6.63;100.00
37068;BME280;22982;42.848;25.468;2024-03-06T05:52:46;96191.63;;;6.69;100.00
37068;BME280;22982;42.848;25.468;2024-03-06T05:58:11;96196.41;;;6.78;100.00
37068;BME280;22982;42.848;25.468;2024-03-06T06:03:18;96214.09;;;6.90;100.00
37068;BME280;22982;42.848;25.468;2024-03-06T06:08:26;96219.50;;;6.86;100.00
37068;BME280;22982;42.848;25.468;2024-03-06T06:13:29;96200.78;;;6.78;100.00
37068;BME280;22982;42.848;25.468;2024-03-06T06:18:32;96212.31;;;6.91;100.00
37068;BME280;22982;42.848;25.468;2024-03-06T06:23:35;96210.78;;;6.87;100.00
37068;BME280;22982;42.848;25.468;2024-03-06T06:28:41;96223.56;;;6.92;100.00
37068;BME280;22982;42.848;25.468;2024-03-06T06:33:44;96211.47;;;6.71;100.00
37068;BME280;22982;42.848;25.468;2024-03-06T06:38:50;96228.09;;;6.88;100.00
37068;BME280;22982;42.848;25.468;2024-03-06T06:43:52;96198.38;;;6.73;100.00
37068;BME280;22982;42.848;25.468;2024-03-06T06:49:00;96221.19;;;6.49;100.00
37068;BME280;22982;42.848;25.468;2024-03-06T06:54:02;96231.19;;;6.77;100.00
37068;BME280;22982;42.848;25.468;2024-03-06T06:59:07;96214.16;;;6.51;100.00
37068;BME280;22982;42.848;25.468;2024-03-06T07:04:09;96240.72;;;6.78;100.00
37068;BME280;22982;42.848;25.468;2024-03-06T07:09:12;96244.03;;;6.82;100.00
37068;BME280;22982;42.848;25.468;2024-03-06T07:14:18;96244.44;;;6.92;100.00
37068;BME280;22982;42.848;25.468;2024-03-06T07:19:20;96247.09;;;7.09;100.00
37068;BME280;22982;42.848;25.468;2024-03-06T07:24:30;96232.88;;;6.97;100.00
37068;BME280;22982;42.848;25.468;2024-03-06T07:29:35;96245.31;;;7.28;100.00
37068;BME280;22982;42.848;25.468;2024-03-06T07:34:38;96236.28;;;7.53;100.00
37068;BME280;22982;42.848;25.468;2024-03-06T07:39:41;96233.78;;;7.69;100.00
37068;BME280;22982;42.848;25.468;2024-03-06T07:44:44;96230.56;;;7.81;100.00
37068;BME280;22982;42.848;25.468;2024-03-06T07:49:46;96224.81;;;8.10;100.00
37068;BME280;22982;42.848;25.468;2024-03-06T07:54:49;96229.03;;;8.12;100.00
37068;BME280;22982;42.848;25.468;2024-03-06T07:59:54;96223.66;;;8.15;100.00
37068;BME280;22982;42.848;25.468;2024-03-06T08:04:57;96231.97;;;8.39;100.00
37068;BME280;22982;42.848;25.468;2024-03-06T08:10:01;96232.97;;;8.54;100.00
37068;BME280;22982;42.848;25.468;2024-03-06T08:15:05;96225.84;;;8.23;100.00
37068;BME280;22982;42.848;25.468;2024-03-06T08:20:11;96218.38;;;8.50;100.00
37068;BME280;22982;42.848;25.468;2024-03-06T08:25:14;96246.97;;;8.53;100.00
37068;BME280;22982;42.848;25.468;2024-03-06T08:30:17;96248.44;;;8.75;100.00
37068;BME280;22982;42.848;25.468;2024-03-06T08:35:21;96247.94;;;9.16;100.00
37068;BME280;22982;42.848;25.468;2024-03-06T08:40:27;96230.59;;;9.31;100.00
37068;BME280;22982;42.848;25.468;2024-03-06T08:45:30;96256.50;;;9.04;100.00
37068;BME280;22982;42.848;25.468;2024-03-06T08:50:33;96234.31;;;8.61;100.00
37068;BME280;22982;42.848;25.468;2024-03-06T08:55:36;96241.66;;;8.71;100.00
37068;BME280;22982;42.848;25.468;2024-03-06T09:00:39;96260.53;;;8.93;100.00
37068;BME280;22982;42.848;25.468;2024-03-06T09:05:42;96249.91;;;8.96;100.00
37068;BME280;22982;42.848;25.468;2024-03-06T09:10:45;96264.03;;;8.43;100.00
37068;BME280;22982;42.848;25.468;2024-03-06T09:15:48;96256.59;;;8.69;100.00
37068;BME280;22982;42.848;25.468;2024-03-06T09:20:50;96257.09;;;8.59;100.00
37068;BME280;22982;42.848;25.468;2024-03-06T09:25:52;96267.84;;;8.87;100.00
37068;BME280;22982;42.848;25.468;2024-03-06T09:30:56;96247.25;;;9.60;100.00
37068;BME280;22982;42.848;25.468;2024-03-06T09:35:59;96248.81;;;10.09;100.00
37068;BME280;22982;42.848;25.468;2024-03-06T09:41:04;96234.09;;;9.92;100.00
37068;BME280;22982;42.848;25.468;2024-03-06T09:46:07;96236.66;;;10.22;100.00
37068;BME280;22982;42.848;25.468;2024-03-06T09:51:10;96250.97;;;10.16;100.00
37068;BME280;22982;42.848;25.468;2024-03-06T09:56:15;96239.09;;;9.81;100.00
37068;BME280;22982;42.848;25.468;2024-03-06T10:01:18;96244.28;;;9.66;100.00
37068;BME280;22982;42.848;25.468;2024-03-06T10:06:22;96239.47;;;9.74;100.00
37068;BME280;22982;42.848;25.468;2024-03-06T10:11:24;96253.59;;;9.56;100.00
37068;BME280;22982;42.848;25.468;2024-03-06T10:16:27;96264.00;;;9.26;100.00
37068;BME280;22982;42.848;25.468;2024-03-06T10:21:30;96276.94;;;8.79;100.00
37068;BME280;22982;42.848;25.468;2024-03-06T10:26:35;96268.81;;;9.02;100.00
37068;BME280;22982;42.848;25.468;2024-03-06T10:31:38;96268.53;;;8.90;100.00
37068;BME280;22982;42.848;25.468;2024-03-06T10:36:57;96258.16;;;9.05;100.00
37068;BME280;22982;42.848;25.468;2024-03-06T10:42:01;96245.50;;;8.97;100.00
37068;BME280;22982;42.848;25.468;2024-03-06T10:47:09;96262.97;;;9.44;100.00
37068;BME280;22982;42.848;25.468;2024-03-06T10:52:12;96251.16;;;9.21;100.00
37068;BME280;22982;42.848;25.468;2024-03-06T10:57:20;96246.28;;;9.15;100.00
37068;BME280;22982;42.848;25.468;2024-03-06T11:02:23;96236.41;;;9.20;100.00
37068;BME280;22982;42.848;25.468;2024-03-06T11:07:26;96247.94;;;9.32;100.00
37068;BME280;22982;42.848;25.468;2024-03-06T11:12:36;96242.19;;;9.41;100.00
37068;BME280;22982;42.848;25.468;2024-03-06T11:17:41;96239.69;;;9.39;100.00
37068;BME280;22982;42.848;25.468;2024-03-06T11:28:05;96206.53;;;9.70;100.00
37068;BME280;22982;42.848;25.468;2024-03-06T11:33:12;96213.66;;;10.27;100.00
37068;BME280;22982;42.848;25.468;2024-03-06T11:38:19;96199.13;;;10.07;100.00
37068;BME280;22982;42.848;25.468;2024-03-06T11:43:24;96205.19;;;10.52;100.00
37068;BME280;22982;42.848;25.468;2024-03-06T11:48:28;96214.75;;;10.68;100.00
37068;BME280;22982;42.848;25.468;2024-03-06T11:53:35;96197.50;;;10.64;100.00
37068;BME280;22982;42.848;25.468;2024-03-06T11:58:38;96193.66;;;10.55;100.00
37068;BME280;22982;42.848;25.468;2024-03-06T12:03:42;96183.00;;;10.58;100.00
37068;BME280;22982;42.848;25.468;2024-03-06T12:08:45;96195.97;;;10.88;100.00
37068;BME280;22982;42.848;25.468;2024-03-06T12:13:52;96197.69;;;10.89;100.00
37068;BME280;22982;42.848;25.468;2024-03-06T12:18:58;96197.19;;;10.97;100.00
37068;BME280;22982;42.848;25.468;2024-03-06T12:24:06;96204.22;;;10.97;100.00
37068;BME280;22982;42.848;25.468;2024-03-06T12:29:10;96197.16;;;11.11;100.00
37068;BME280;22982;42.848;25.468;2024-03-06T12:34:14;96186.75;;;11.10;100.00
37068;BME280;22982;42.848;25.468;2024-03-06T12:39:20;96187.00;;;10.78;100.00
37068;BME280;22982;42.848;25.468;2024-03-06T12:44:25;96189.19;;;11.13;100.00
37068;BME280;22982;42.848;25.468;2024-03-06T12:49:31;96181.88;;;11.45;100.00
37068;BME280;22982;42.848;25.468;2024-03-06T12:54:34;96192.41;;;11.31;100.00
37068;BME280;22982;42.848;25.468;2024-03-06T12:59:37;96171.84;;;11.38;100.00
37068;BME280;22982;42.848;25.468;2024-03-06T13:04:40;96177.56;;;11.17;100.00
37068;BME280;22982;42.848;25.468;2024-03-06T13:09:42;96184.28;;;11.21;100.00
37068;BME280;22982;42.848;25.468;2024-03-06T13:14:45;96175.38;;;10.97;100.00
37068;BME280;22982;42.848;25.468;2024-03-06T13:19:48;96174.59;;;10.95;100.00
37068;BME280;22982;42.848;25.468;2024-03-06T13:24:50;96161.22;;;10.85;100.00
37068;BME280;22982;42.848;25.468;2024-03-06T13:29:53;96159.72;;;11.22;100.00
37068;BME280;22982;42.848;25.468;2024-03-06T13:35:07;96167.56;;;11.37;100.00
37068;BME280;22982;42.848;25.468;2024-03-06T13:40:14;96157.59;;;11.42;100.00
37068;BME280;22982;42.848;25.468;2024-03-06T13:45:18;96162.78;;;11.02;100.00
37068;BME280;22982;42.848;25.468;2024-03-06T13:50:20;96161.84;;;11.03;100.00
37068;BME280;22982;42.848;25.468;2024-03-06T13:55:28;96160.06;;;11.03;100.00
37068;BME280;22982;42.848;25.468;2024-03-06T14:00:33;96159.50;;;10.98;100.00
37068;BME280;22982;42.848;25.468;2024-03-06T14:05:39;96160.16;;;11.02;100.00
37068;BME280;22982;42.848;25.468;2024-03-06T14:10:42;96156.84;;;11.13;100.00
37068;BME280;22982;42.848;25.468;2024-03-06T14:15:44;96154.31;;;11.11;100.00
37068;BME280;22982;42.848;25.468;2024-03-06T14:20:50;96155.81;;;10.73;100.00
37068;BME280;22982;42.848;25.468;2024-03-06T14:25:53;96151.19;;;10.36;100.00
37068;BME280;22982;42.848;25.468;2024-03-06T14:30:56;96152.19;;;10.33;100.00
37068;BME280;22982;42.848;25.468;2024-03-06T14:35:59;96163.63;;;10.32;100.00
37068;BME280;22982;42.848;25.468;2024-03-06T14:41:02;96150.69;;;10.29;100.00
37068;BME280;22982;42.848;25.468;2024-03-06T14:46:05;96150.09;;;10.09;100.00
37068;BME280;22982;42.848;25.468;2024-03-06T14:51:08;96164.97;;;10.09;100.00
37068;BME280;22982;42.848;25.468;2024-03-06T14:56:12;96159.63;;;9.96;100.00
37068;BME280;22982;42.848;25.468;2024-03-06T15:01:14;96177.53;;;10.18;100.00
37068;BME280;22982;42.848;25.468;2024-03-06T15:06:21;96166.88;;;10.21;100.00
37068;BME280;22982;42.848;25.468;2024-03-06T15:11:24;96178.50;;;10.46;100.00
37068;BME280;22982;42.848;25.468;2024-03-06T15:16:29;96158.25;;;10.19;100.00
37068;BME280;22982;42.848;25.468;2024-03-06T15:21:32;96170.53;;;10.47;100.00
37068;BME280;22982;42.848;25.468;2024-03-06T15:26:35;96171.50;;;9.87;100.00
37068;BME280;22982;42.848;25.468;2024-03-06T15:31:39;96165.69;;;9.52;100.00
37068;BME280;22982;42.848;25.468;2024-03-06T15:36:42;96184.94;;;9.67;100.00
37068;BME280;22982;42.848;25.468;2024-03-06T15:41:46;96181.09;;;9.42;100.00
37068;BME280;22982;42.848;25.468;2024-03-06T15:46:49;96169.78;;;9.42;100.00
37068;BME280;22982;42.848;25.468;2024-03-06T15:52:31;96181.09;;;9.42;100.00
37068;BME280;22982;42.848;25.468;2024-03-06T15:57:34;96174.28;;;9.39;100.00
37068;BME280;22982;42.848;25.468;2024-03-06T16:02:37;96171.34;;;9.14;100.00
37068;BME280;22982;42.848;25.468;2024-03-06T16:07:40;96179.69;;;9.20;100.00
37068;BME280;22982;42.848;25.468;2024-03-06T16:12:56;96199.09;;;8.85;100.00
37068;BME280;22982;42.848;25.468;2024-03-06T16:17:59;96196.81;;;8.62;100.00
37068;BME280;22982;42.848;25.468;2024-03-06T16:23:02;96206.06;;;8.19;100.00
37068;BME280;22982;42.848;25.468;2024-03-06T16:28:07;96199.56;;;7.58;100.00
37068;BME280;22982;42.848;25.468;2024-03-06T16:33:09;96223.19;;;7.55;100.00
37068;BME280;22982;42.848;25.468;2024-03-06T16:38:12;96214.72;;;7.32;100.00
37068;BME280;22982;42.848;25.468;2024-03-06T16:43:46;96233.94;;;7.48;100.00
37068;BME280;22982;42.848;25.468;2024-03-06T16:54:33;96241.88;;;6.90;100.00
37068;BME280;22982;42.848;25.468;2024-03-06T16:59:36;96245.97;;;6.58;100.00
37068;BME280;22982;42.848;25.468;2024-03-06T17:04:39;96254.56;;;6.20;100.00
37068;BME280;22982;42.848;25.468;2024-03-06T17:09:41;96248.13;;;6.08;100.00
37068;BME280;22982;42.848;25.468;2024-03-06T17:14:44;96263.22;;;6.21;100.00
37068;BME280;22982;42.848;25.468;2024-03-06T17:19:47;96257.72;;;5.86;100.00
37068;BME280;22982;42.848;25.468;2024-03-06T17:24:49;96260.44;;;5.62;100.00
37068;BME280;22982;42.848;25.468;2024-03-06T17:29:52;96273.59;;;5.57;100.00
37068;BME280;22982;42.848;25.468;2024-03-06T17:34:56;96270.97;;;5.37;100.00
37068;BME280;22982;42.848;25.468;2024-03-06T17:40:00;96251.78;;;5.40;100.00
37068;BME280;22982;42.848;25.468;2024-03-06T17:45:07;96276.34;;;5.10;100.00
37068;BME280;22982;42.848;25.468;2024-03-06T17:50:11;96268.53;;;4.88;100.00
37068;BME280;22982;42.848;25.468;2024-03-06T17:55:16;96278.53;;;4.75;100.00
37068;BME280;22982;42.848;25.468;2024-03-06T18:00:19;96270.22;;;4.66;100.00
37068;BME280;22982;42.848;25.468;2024-03-06T18:05:22;96267.66;;;4.88;100.00
37068;BME280;22982;42.848;25.468;2024-03-06T18:10:25;96257.06;;;4.70;100.00
37068;BME280;22982;42.848;25.468;2024-03-06T18:15:29;96259.41;;;4.76;100.00
37068;BME280;22982;42.848;25.468;2024-03-06T18:20:31;96268.28;;;4.94;100.00
37068;BME280;22982;42.848;25.468;2024-03-06T18:25:36;96272.84;;;4.88;100.00
37068;BME280;22982;42.848;25.468;2024-03-06T18:30:39;96266.19;;;4.57;100.00
37068;BME280;22982;42.848;25.468;2024-03-06T18:35:41;96271.72;;;4.71;100.00
37068;BME280;22982;42.848;25.468;2024-03-06T18:40:44;96264.81;;;4.72;100.00
37068;BME280;22982;42.848;25.468;2024-03-06T18:45:46;96246.44;;;4.53;100.00
37068;BME280;22982;42.848;25.468;2024-03-06T18:50:51;96278.13;;;4.63;100.00
37068;BME280;22982;42.848;25.468;2024-03-06T18:55:53;96265.97;;;4.63;100.00
37068;BME280;22982;42.848;25.468;2024-03-06T19:00:56;96264.16;;;4.89;100.00
37068;BME280;22982;42.848;25.468;2024-03-06T19:05:59;96250.09;;;4.71;100.00
37068;BME280;22982;42.848;25.468;2024-03-06T19:11:02;96265.25;;;5.05;100.00
37068;BME280;22982;42.848;25.468;2024-03-06T19:16:05;96282.09;;;5.18;100.00
37068;BME280;22982;42.848;25.468;2024-03-06T19:21:08;96275.81;;;5.24;100.00
37068;BME280;22982;42.848;25.468;2024-03-06T19:26:12;96266.50;;;5.18;100.00
37068;BME280;22982;42.848;25.468;2024-03-06T19:31:16;96272.84;;;5.33;100.00
37068;BME280;22982;42.848;25.468;2024-03-06T19:36:20;96254.41;;;5.17;100.00
37068;BME280;22982;42.848;25.468;2024-03-06T19:41:26;96269.75;;;5.24;100.00
37068;BME280;22982;42.848;25.468;2024-03-06T19:46:28;96265.03;;;5.11;100.00
37068;BME280;22982;42.848;25.468;2024-03-06T19:51:31;96252.75;;;4.93;100.00
37068;BME280;22982;42.848;25.468;2024-03-06T19:56:34;96267.44;;;4.94;100.00
37068;BME280;22982;42.848;25.468;2024-03-06T20:01:42;96264.63;;;4.76;100.00
37068;BME280;22982;42.848;25.468;2024-03-06T20:06:44;96270.44;;;4.83;100.00
37068;BME280;22982;42.848;25.468;2024-03-06T20:11:46;96271.38;;;4.57;100.00
37068;BME280;22982;42.848;25.468;2024-03-06T20:16:52;96278.16;;;4.37;100.00
37068;BME280;22982;42.848;25.468;2024-03-06T20:21:55;96275.94;;;4.52;100.00
37068;BME280;22982;42.848;25.468;2024-03-06T20:27:01;96264.69;;;4.26;100.00
37068;BME280;22982;42.848;25.468;2024-03-06T20:32:04;96273.72;;;4.41;100.00
37068;BME280;22982;42.848;25.468;2024-03-06T20:37:10;96268.69;;;4.36;100.00
37068;BME280;22982;42.848;25.468;2024-03-06T20:42:12;96275.41;;;4.17;100.00
37068;BME280;22982;42.848;25.468;2024-03-06T20:47:16;96274.94;;;4.06;100.00
37068;BME280;22982;42.848;25.468;2024-03-06T20:52:19;96263.53;;;3.84;100.00
37068;BME280;22982;42.848;25.468;2024-03-06T20:57:24;96272.94;;;3.35;100.00
37068;BME280;22982;42.848;25.468;2024-03-06T21:02:26;96271.94;;;3.39;100.00
37068;BME280;22982;42.848;25.468;2024-03-06T21:07:30;96277.78;;;3.46;100.00
37068;BME280;22982;42.848;25.468;2024-03-06T21:12:33;96263.56;;;3.31;100.00
37068;BME280;22982;42.848;25.468;2024-03-06T21:17:36;96270.59;;;3.28;100.00
37068;BME280;22982;42.848;25.468;2024-03-06T21:22:40;96283.63;;;3.24;100.00
37068;BME280;22982;42.848;25.468;2024-03-06T21:27:43;96285.22;;;3.29;100.00
37068;BME280;22982;42.848;25.468;2024-03-06T21:32:46;96276.66;;;3.26;100.00
37068;BME280;22982;42.848;25.468;2024-03-06T21:37:48;96262.81;;;2.99;100.00
37068;BME280;22982;42.848;25.468;2024-03-06T21:42:51;96253.25;;;3.01;100.00
37068;BME280;22982;42.848;25.468;2024-03-06T21:47:54;96246.81;;;2.86;100.00
37068;BME280;22982;42.848;25.468;2024-03-06T21:52:57;96258.19;;;2.81;100.00
37068;BME280;22982;42.848;25.468;2024-03-06T21:58:03;96266.09;;;2.76;100.00
37068;BME280;22982;42.848;25.468;2024-03-06T22:03:05;96250.66;;;2.73;100.00
37068;BME280;22982;42.848;25.468;2024-03-06T22:08:08;96263.31;;;2.53;100.00
37068;BME280;22982;42.848;25.468;2024-03-06T22:13:11;96244.47;;;2.47;100.00
37068;BME280;22982;42.848;25.468;2024-03-06T22:18:14;96247.34;;;2.38;100.00
37068;BME280;22982;42.848;25.468;2024-03-06T22:23:16;96231.19;;;2.30;100.00
37068;BME280;22982;42.848;25.468;2024-03-06T22:28:20;96240.34;;;2.42;100.00
37068;BME280;22982;42.848;25.468;2024-03-06T22:33:23;96242.28;;;2.35;100.00
37068;BME280;22982;42.848;25.468;2024-03-06T22:38:30;96245.34;;;2.17;100.00
37068;BME280;22982;42.848;25.468;2024-03-06T22:43:33;96228.81;;;1.91;100.00
37068;BME280;22982;42.848;25.468;2024-03-06T22:48:36;96229.34;;;2.02;100.00
37068;BME280;22982;42.848;25.468;2024-03-06T22:53:39;96233.53;;;1.75;100.00
37068;BME280;22982;42.848;25.468;2024-03-06T22:58:43;96231.97;;;1.69;100.00
37068;BME280;22982;42.848;25.468;2024-03-06T23:04:04;96229.75;;;1.88;100.00
37068;BME280;22982;42.848;25.468;2024-03-06T23:09:07;96239.28;;;1.86;100.00
37068;BME280;22982;42.848;25.468;2024-03-06T23:14:11;96226.47;;;1.82;100.00
37068;BME280;22982;42.848;25.468;2024-03-06T23:19:15;96229.31;;;1.72;100.00
37068;BME280;22982;42.848;25.468;2024-03-06T23:24:18;96214.50;;;1.79;100.00
37068;BME280;22982;42.848;25.468;2024-03-06T23:29:21;96220.00;;;1.98;100.00
37068;BME280;22982;42.848;25.468;2024-03-06T23:34:24;96227.84;;;2.26;100.00
37068;BME280;22982;42.848;25.468;2024-03-06T23:39:27;96227.59;;;2.36;100.00
37068;BME280;22982;42.848;25.468;2024-03-06T23:44:30;96208.91;;;2.26;100.00
37068;BME280;22982;42.848;25.468;2024-03-06T23:49:33;96223.63;;;2.54;100.00
37068;BME280;22982;42.848;25.468;2024-03-06T23:54:36;96214.25;;;2.49;100.00
37068;BME280;22982;42.848;25.468;2024-03-06T23:59:41;96217.28;;;2.64;100.00
